createdAt,value
2023-02-08T00:00:06.740Z,15.15
2023-02-08T00:02:08.388Z,15.70
2023-02-08T00:04:09.943Z,17.83
2023-02-08T00:06:12.160Z,16.08
2023-02-08T00:08:13.689Z,13.90
2023-02-08T00:10:15.244Z,16.00
2023-02-08T00:12:18.083Z,15.45
2023-02-08T00:14:20.960Z,14.70
2023-02-08T00:16:22.608Z,16.35
2023-02-08T00:18:24.183Z,13.50
2023-02-08T00:20:25.882Z,14.95
2023-02-08T00:22:27.387Z,14.50
2023-02-08T00:24:30.007Z,15.45
2023-02-08T00:26:31.491Z,16.20
2023-02-08T00:28:33.212Z,13.07
2023-02-08T00:30:42.143Z,15.18
2023-02-08T00:32:43.825Z,16.30
2023-02-08T00:34:45.435Z,16.55
2023-02-08T00:36:47.004Z,15.27
2023-02-08T00:38:48.574Z,14.80
2023-02-08T00:40:50.068Z,14.00
2023-02-08T00:42:51.603Z,15.65
2023-02-08T00:44:53.072Z,16.30
2023-02-08T00:47:03.577Z,13.38
2023-02-08T00:49:05.128Z,13.75
2023-02-08T00:51:08.267Z,14.90
2023-02-08T00:53:09.794Z,13.45
2023-02-08T00:55:11.365Z,12.80
2023-02-08T00:57:13.171Z,12.65
2023-02-08T00:59:15.268Z,12.80
2023-02-08T01:01:16.932Z,12.00
2023-02-08T01:03:20.640Z,10.77
2023-02-08T01:05:22.331Z,12.23
2023-02-08T01:07:23.932Z,13.23
2023-02-08T01:09:25.610Z,13.95
2023-02-08T01:11:27.251Z,12.70
2023-02-08T01:13:28.704Z,12.88
2023-02-08T01:15:30.397Z,12.45
2023-02-08T01:17:31.912Z,13.13
2023-02-08T01:19:35.208Z,12.70
2023-02-08T01:21:38.767Z,12.73
2023-02-08T01:23:40.819Z,12.65
2023-02-08T01:25:42.351Z,12.40
2023-02-08T01:27:44.118Z,12.00
2023-02-08T01:29:45.687Z,12.85
2023-02-08T01:31:47.312Z,12.30
2023-02-08T01:33:49.244Z,12.50
2023-02-08T01:35:52.855Z,12.70
2023-02-08T01:37:54.351Z,12.13
2023-02-08T01:39:55.924Z,13.07
2023-02-08T01:41:57.503Z,12.98
2023-02-08T01:44:15.624Z,12.55
2023-02-08T01:46:17.531Z,12.65
2023-02-08T01:48:23.957Z,12.45
2023-02-08T01:50:31.294Z,13.95
2023-02-08T01:52:34.495Z,12.75
2023-02-08T01:54:40.410Z,12.18
2023-02-08T01:56:44.722Z,11.90
2023-02-08T01:58:52.076Z,14.35
2023-02-08T02:00:54.605Z,12.45
2023-02-08T02:05:17.467Z,13.55
2023-02-08T02:07:21.681Z,12.10
2023-02-08T02:09:28.414Z,14.57
2023-02-08T02:11:29.895Z,12.80
2023-02-08T02:13:32.529Z,11.77
2023-02-08T02:15:34.622Z,12.88
2023-02-08T02:17:38.371Z,13.02
2023-02-08T02:19:50.227Z,11.82
2023-02-08T02:22:03.686Z,12.18
2023-02-08T02:25:00.897Z,11.57
2023-02-08T02:27:20.624Z,11.52
2023-02-08T02:29:58.740Z,12.50
2023-02-08T02:32:22.723Z,12.23
2023-02-08T02:34:31.901Z,12.45
2023-02-08T02:36:43.715Z,10.32
2023-02-08T02:38:58.097Z,11.48
2023-02-08T02:41:07.830Z,10.32
2023-02-08T02:43:18.226Z,11.20
2023-02-08T02:45:26.557Z,10.18
2023-02-08T02:47:39.885Z,10.52
2023-02-08T02:49:52.251Z,9.90
2023-02-08T02:51:58.810Z,9.25
2023-02-08T02:54:06.657Z,10.65
2023-02-08T02:56:12.183Z,10.52
2023-02-08T02:58:21.636Z,10.07
2023-02-08T03:00:26.254Z,9.57
2023-02-08T03:02:29.169Z,9.10
2023-02-08T03:04:53.645Z,9.43
2023-02-08T03:07:05.661Z,9.77
2023-02-08T03:09:30.894Z,10.20
2023-02-08T03:11:35.148Z,10.23
2023-02-08T03:13:55.238Z,10.07
2023-02-08T03:16:07.570Z,9.43
2023-02-08T03:18:25.822Z,9.52
2023-02-08T03:20:31.868Z,9.10
2023-02-08T03:22:43.157Z,10.02
2023-02-08T03:24:53.863Z,9.30
2023-02-08T03:27:00.738Z,10.32
2023-02-08T03:29:08.376Z,9.82
2023-02-08T03:31:14.201Z,9.35
2023-02-08T03:33:21.015Z,10.90
2023-02-08T03:35:27.418Z,10.75
2023-02-08T03:37:33.645Z,10.45
2023-02-08T03:39:37.896Z,10.10
2023-02-08T03:41:44.617Z,10.15
2023-02-08T03:43:51.585Z,9.57
2023-02-08T03:45:59.584Z,10.50
2023-02-08T03:48:04.902Z,9.82
2023-02-08T03:50:11.529Z,10.60
2023-02-08T03:52:22.497Z,11.40
2023-02-08T03:54:27.968Z,10.20
2023-02-08T03:56:38.508Z,9.00
2023-02-08T03:58:46.328Z,9.98
2023-02-08T04:00:54.386Z,10.98
2023-02-08T04:03:00.482Z,9.98
2023-02-08T04:05:02.465Z,10.05
2023-02-08T04:07:06.037Z,10.55
2023-02-08T04:09:07.666Z,12.73
2023-02-08T04:11:09.196Z,12.35
2023-02-08T04:13:10.646Z,11.15
2023-02-08T04:15:12.193Z,9.93
2023-02-08T04:17:13.701Z,9.60
2023-02-08T04:19:15.166Z,10.00
2023-02-08T04:21:16.688Z,11.70
2023-02-08T04:23:19.523Z,11.32
2023-02-08T04:25:21.255Z,12.93
2023-02-08T04:27:22.774Z,14.95
2023-02-08T04:29:24.362Z,13.10
2023-02-08T04:31:25.975Z,11.70
2023-02-08T04:33:28.850Z,11.35
2023-02-08T04:35:30.411Z,11.70
2023-02-08T04:37:32.498Z,10.80
2023-02-08T04:39:35.341Z,12.50
2023-02-08T04:41:36.800Z,11.25
2023-02-08T04:43:38.274Z,10.60
2023-02-08T04:45:39.782Z,10.15
2023-02-08T04:47:41.270Z,10.15
2023-02-08T04:49:42.756Z,11.10
2023-02-08T04:51:44.532Z,9.13
2023-02-08T04:53:46.005Z,10.65
2023-02-08T04:55:48.847Z,10.30
2023-02-08T04:57:50.333Z,9.82
2023-02-08T04:59:51.804Z,9.25
2023-02-08T05:01:53.458Z,9.05
2023-02-08T05:03:55.034Z,9.32
2023-02-08T05:05:57.593Z,10.90
2023-02-08T05:08:04.265Z,11.00
2023-02-08T05:10:06.490Z,11.57
2023-02-08T05:12:09.334Z,10.02
2023-02-08T05:14:10.898Z,9.45
2023-02-08T05:16:12.507Z,10.60
2023-02-08T05:18:14.019Z,10.05
2023-02-08T05:20:15.572Z,10.40
2023-02-08T05:22:17.204Z,11.40
2023-02-08T05:24:18.650Z,10.73
2023-02-08T05:26:20.295Z,10.55
2023-02-08T05:28:23.359Z,10.60
2023-02-08T05:30:24.905Z,10.50
2023-02-08T05:32:26.559Z,11.25
2023-02-08T05:34:28.144Z,10.65
2023-02-08T05:36:29.960Z,11.15
2023-02-08T05:38:31.437Z,10.65
2023-02-08T05:40:33.488Z,9.25
2023-02-08T05:42:34.993Z,10.75
2023-02-08T05:44:38.120Z,10.13
2023-02-08T05:46:39.736Z,11.15
2023-02-08T05:48:41.353Z,10.70
2023-02-08T05:50:42.996Z,10.55
2023-02-08T05:52:44.503Z,11.20
2023-02-08T05:54:46.103Z,10.82
2023-02-08T05:56:47.619Z,12.85
2023-02-08T05:58:49.265Z,11.55
2023-02-08T06:00:52.206Z,9.27
2023-02-08T06:02:53.801Z,10.60
2023-02-08T06:04:55.381Z,10.50
2023-02-08T06:06:57.082Z,10.60
2023-02-08T06:08:58.587Z,11.70
2023-02-08T06:11:00.171Z,12.38
2023-02-08T06:13:02.095Z,11.63
2023-02-08T06:15:04.036Z,10.60
2023-02-08T06:17:06.901Z,10.75
2023-02-08T06:19:08.382Z,10.93
2023-02-08T06:21:09.897Z,11.52
2023-02-08T06:23:11.639Z,11.13
2023-02-08T06:25:13.134Z,11.70
2023-02-08T06:27:14.717Z,11.93
2023-02-08T06:29:16.228Z,10.85
2023-02-08T06:31:18.056Z,11.43
2023-02-08T06:33:20.970Z,11.05
2023-02-08T06:35:22.579Z,12.57
2023-02-08T06:37:24.184Z,11.40
2023-02-08T06:39:25.858Z,12.30
2023-02-08T06:41:27.340Z,10.88
2023-02-08T06:43:28.839Z,10.90
2023-02-08T06:45:30.380Z,11.27
2023-02-08T06:47:31.958Z,12.40
2023-02-08T06:49:35.008Z,11.77
2023-02-08T06:51:36.641Z,11.65
2023-02-08T06:53:38.199Z,12.82
2023-02-08T06:55:39.724Z,12.60
2023-02-08T06:57:41.182Z,13.15
2023-02-08T06:59:42.947Z,11.65
2023-02-08T07:01:44.438Z,12.75
2023-02-08T07:03:48.714Z,14.73
2023-02-08T07:06:04.164Z,11.52
2023-02-08T07:08:07.251Z,13.32
2023-02-08T07:10:08.979Z,12.35
2023-02-08T07:12:11.222Z,14.02
2023-02-08T07:14:13.970Z,11.52
2023-02-08T07:16:15.771Z,11.95
2023-02-08T07:18:17.333Z,11.55
2023-02-08T07:20:19.294Z,12.55
2023-02-08T07:22:22.153Z,11.93
2023-02-08T07:24:23.771Z,16.85
2023-02-08T07:26:25.192Z,16.35
2023-02-08T07:28:26.928Z,16.13
2023-02-08T07:30:28.471Z,19.65
2023-02-08T07:32:30.109Z,17.52
2023-02-08T07:34:33.495Z,13.95
2023-02-08T07:36:35.092Z,14.32
2023-02-08T07:38:38.484Z,14.75
2023-02-08T07:40:40.634Z,15.32
2023-02-08T07:42:42.301Z,14.35
2023-02-08T07:44:43.862Z,15.07
2023-02-08T07:46:45.625Z,16.42
2023-02-08T07:48:47.779Z,11.52
2023-02-08T07:50:49.302Z,14.77
2023-02-08T07:52:50.768Z,12.70
2023-02-08T07:54:53.981Z,15.88
2023-02-08T07:56:55.647Z,22.70
2023-02-08T07:58:57.169Z,16.90
2023-02-08T08:00:59.089Z,15.40
2023-02-08T08:03:08.387Z,14.02
2023-02-08T08:05:10.915Z,18.48
2023-02-08T08:07:12.448Z,15.18
2023-02-08T08:09:13.972Z,14.40
2023-02-08T08:11:18.413Z,16.10
2023-02-08T08:13:19.989Z,25.20
2023-02-08T08:15:21.444Z,14.57
2023-02-08T08:17:22.884Z,13.82
2023-02-08T08:19:24.611Z,13.60
2023-02-08T08:21:26.110Z,13.23
2023-02-08T08:23:27.624Z,13.48
2023-02-08T08:25:29.186Z,13.93
2023-02-08T08:27:32.173Z,13.65
2023-02-08T08:29:35.031Z,13.77
2023-02-08T08:31:36.558Z,13.32
2023-02-08T08:33:38.296Z,13.43
2023-02-08T08:35:40.354Z,13.40
2023-02-08T08:37:41.858Z,11.93
2023-02-08T08:39:43.395Z,12.73
2023-02-08T08:41:47.881Z,14.43
2023-02-08T08:43:51.175Z,12.50
2023-02-08T08:45:53.134Z,13.50
2023-02-08T08:47:54.807Z,13.32
2023-02-08T08:49:56.303Z,12.93
2023-02-08T08:51:58.021Z,12.52
2023-02-08T08:53:59.531Z,13.40
2023-02-08T08:56:01.157Z,14.38
2023-02-08T08:58:02.594Z,13.30
2023-02-08T09:00:06.360Z,12.82
2023-02-08T09:02:11.351Z,12.73
2023-02-08T09:04:13.155Z,14.65
2023-02-08T09:06:14.761Z,11.38
2023-02-08T09:08:16.397Z,13.48
2023-02-08T09:10:18.092Z,15.23
2023-02-08T09:12:19.557Z,15.50
2023-02-08T09:14:21.180Z,20.80
2023-02-08T09:16:24.489Z,16.65
2023-02-08T09:18:26.258Z,12.70
2023-02-08T09:20:27.925Z,12.60
2023-02-08T09:22:29.863Z,11.23
2023-02-08T09:24:31.351Z,20.58
2023-02-08T09:26:33.169Z,16.30
2023-02-08T09:28:34.979Z,14.10
2023-02-08T09:30:36.544Z,11.88
2023-02-08T09:32:40.029Z,11.52
2023-02-08T09:34:41.573Z,11.73
2023-02-08T09:36:43.094Z,11.40
2023-02-08T09:38:45.056Z,11.38
2023-02-08T09:40:57.190Z,12.20
2023-02-08T09:43:07.153Z,11.35
2023-02-08T09:45:25.862Z,11.32
2023-02-08T09:47:32.857Z,13.65
2023-02-08T09:49:40.771Z,14.70
2023-02-08T09:51:45.828Z,11.80
2023-02-08T09:53:52.975Z,13.73
2023-02-08T09:56:01.723Z,12.43
2023-02-08T09:58:10.572Z,11.23
2023-02-08T10:00:17.426Z,11.82
2023-02-08T10:02:25.182Z,12.10
2023-02-08T10:04:37.379Z,11.68
2023-02-08T10:06:40.861Z,13.77
2023-02-08T10:08:43.460Z,11.73
2023-02-08T10:10:53.125Z,11.45
2023-02-08T10:13:03.393Z,17.40
2023-02-08T10:15:18.075Z,12.05
2023-02-08T10:17:41.633Z,12.23
2023-02-08T10:19:56.151Z,12.82
2023-02-08T10:22:09.344Z,11.10
2023-02-08T10:24:29.797Z,10.77
2023-02-08T10:26:37.056Z,11.50
2023-02-08T10:28:54.415Z,11.75
2023-02-08T10:31:10.311Z,10.73
2023-02-08T10:33:18.694Z,12.00
2023-02-08T10:35:25.624Z,11.10
2023-02-08T10:37:31.426Z,11.15
2023-02-08T10:39:35.902Z,12.13
2023-02-08T10:41:37.624Z,11.60
2023-02-08T10:43:43.062Z,10.90
2023-02-08T10:45:51.820Z,12.32
2023-02-08T10:47:56.536Z,12.32
2023-02-08T10:50:01.406Z,12.02
2023-02-08T10:52:03.162Z,11.50
2023-02-08T10:54:06.037Z,13.18
2023-02-08T10:56:21.455Z,11.75
2023-02-08T10:58:25.072Z,12.20
2023-02-08T11:00:30.276Z,12.00
2023-02-08T11:02:33.781Z,11.60
2023-02-08T11:04:59.737Z,11.70
2023-02-08T11:07:19.292Z,11.67
2023-02-08T11:09:24.997Z,11.63
2023-02-08T11:11:27.260Z,13.33
2023-02-08T11:13:36.673Z,12.03
2023-02-08T11:15:43.734Z,12.80
2023-02-08T11:17:45.544Z,12.50
2023-02-08T11:19:49.958Z,11.80
2023-02-08T11:21:52.441Z,14.60
2023-02-08T11:23:55.270Z,11.87
2023-02-08T11:26:16.637Z,12.33
2023-02-08T11:28:27.672Z,14.07
2023-02-08T11:30:29.865Z,12.17
2023-02-08T11:32:31.406Z,11.27
2023-02-08T11:34:34.845Z,10.60
2023-02-08T11:36:38.345Z,11.27
2023-02-08T11:38:42.707Z,11.20
2023-02-08T11:40:45.719Z,11.47
2023-02-08T11:42:49.295Z,10.90
2023-02-08T11:44:52.443Z,10.87
2023-02-08T11:46:57.120Z,11.33
2023-02-08T11:48:58.632Z,12.37
2023-02-08T11:51:02.317Z,12.17
2023-02-08T11:53:05.764Z,12.93
2023-02-08T11:55:23.421Z,11.50
2023-02-08T11:57:26.792Z,11.97
2023-02-08T11:59:30.542Z,11.93
2023-02-08T12:01:34.205Z,12.80
2023-02-08T12:03:37.950Z,12.13
2023-02-08T12:05:54.986Z,11.40
2023-02-08T12:08:06.034Z,10.93
2023-02-08T12:10:33.091Z,10.70
2023-02-08T12:12:48.227Z,11.60
2023-02-08T12:15:01.885Z,13.37
2023-02-08T12:17:31.919Z,13.20
2023-02-08T12:20:02.069Z,15.23
2023-02-08T12:22:06.660Z,11.63
2023-02-08T12:24:17.652Z,11.33
2023-02-08T12:26:28.674Z,12.03
2023-02-08T12:28:43.185Z,12.00
2023-02-08T12:30:53.545Z,11.00
2023-02-08T12:33:19.340Z,10.47
2023-02-08T12:36:03.941Z,8.90
2023-02-08T12:38:14.014Z,11.50
2023-02-08T12:40:28.838Z,10.87
2023-02-08T12:42:41.542Z,9.97
2023-02-08T12:45:00.114Z,10.70
2023-02-08T12:47:17.656Z,11.93
2023-02-08T12:49:45.659Z,9.17
2023-02-08T12:51:54.715Z,9.83
2023-02-08T12:54:01.552Z,9.50
2023-02-08T12:56:07.830Z,9.90
2023-02-08T12:58:25.478Z,10.67
2023-02-08T13:00:31.453Z,10.60
2023-02-08T13:02:41.193Z,9.20
2023-02-08T13:04:46.351Z,8.27
2023-02-08T13:06:52.226Z,8.43
2023-02-08T13:09:00.799Z,9.10
2023-02-08T13:11:19.108Z,9.23
2023-02-08T13:13:25.590Z,10.63
2023-02-08T13:15:34.984Z,8.93
2023-02-08T13:17:49.839Z,8.03
2023-02-08T13:20:00.412Z,8.27
2023-02-08T13:22:05.528Z,8.87
2023-02-08T13:24:16.768Z,9.60
2023-02-08T13:26:22.506Z,9.60
2023-02-08T13:28:25.726Z,8.73
2023-02-08T13:30:27.793Z,10.33
2023-02-08T13:32:44.044Z,9.90
2023-02-08T13:34:51.799Z,9.30
2023-02-08T13:36:56.292Z,8.23
2023-02-08T13:38:59.387Z,7.87
2023-02-08T13:41:05.135Z,7.40
2023-02-08T13:43:34.343Z,13.87
2023-02-08T13:45:42.409Z,7.93
2023-02-08T13:47:47.888Z,5.67
2023-02-08T13:49:58.714Z,6.90
2023-02-08T13:52:00.199Z,7.37
2023-02-08T13:54:10.462Z,7.97
2023-02-08T13:56:12.959Z,7.13
2023-02-08T13:58:58.227Z,7.03
2023-02-08T14:01:16.122Z,6.47
2023-02-08T14:03:21.803Z,8.75
2023-02-08T14:05:44.985Z,10.23
2023-02-08T14:07:47.899Z,6.32
2023-02-08T14:10:05.829Z,5.40
2023-02-08T14:12:18.639Z,6.93
2023-02-08T14:14:23.435Z,6.45
2023-02-08T14:16:32.120Z,7.10
2023-02-08T14:18:33.840Z,6.10
2023-02-08T14:20:40.116Z,7.05
2023-02-08T14:22:50.498Z,7.82
2023-02-08T14:25:01.234Z,6.10
2023-02-08T14:27:09.595Z,5.05
2023-02-08T14:29:21.969Z,5.60
2023-02-08T14:31:36.801Z,5.03
2023-02-08T14:33:41.218Z,5.05
2023-02-08T14:35:52.802Z,5.00
2023-02-08T14:38:26.976Z,4.80
2023-02-08T14:40:33.988Z,5.05
2023-02-08T14:42:54.772Z,5.53
2023-02-08T14:45:01.295Z,5.80
2023-02-08T14:47:02.969Z,5.30
2023-02-08T14:49:10.025Z,4.70
2023-02-08T14:51:24.066Z,4.85
2023-02-08T14:53:35.835Z,5.55
2023-02-08T14:55:45.670Z,5.93
2023-02-08T14:57:47.910Z,5.63
2023-02-08T14:59:50.522Z,5.75
2023-02-08T15:01:55.650Z,4.90
2023-02-08T15:04:01.825Z,4.85
2023-02-08T15:06:20.720Z,5.47
2023-02-08T15:08:22.295Z,4.95
2023-02-08T15:10:26.566Z,5.13
2023-02-08T15:12:30.228Z,5.40
2023-02-08T15:14:35.520Z,5.07
2023-02-08T15:16:42.219Z,5.53
2023-02-08T15:18:47.332Z,5.87
2023-02-08T15:20:59.757Z,5.15
2023-02-08T15:23:05.204Z,5.90
2023-02-08T15:25:24.234Z,5.93
2023-02-08T15:27:29.387Z,6.90
2023-02-08T15:29:43.888Z,6.38
2023-02-08T15:31:46.671Z,6.47
2023-02-08T15:33:48.602Z,8.40
2023-02-08T15:35:57.612Z,8.60
2023-02-08T15:37:59.130Z,8.82
2023-02-08T15:40:02.566Z,7.63
2023-02-08T15:42:04.829Z,5.93
2023-02-08T15:44:16.880Z,7.00
2023-02-08T15:46:22.183Z,6.72
2023-02-08T15:48:24.726Z,6.85
2023-02-08T15:50:28.671Z,8.95
2023-02-08T15:52:34.804Z,8.02
2023-02-08T15:54:36.437Z,7.90
2023-02-08T15:56:42.291Z,9.03
2023-02-08T15:58:48.147Z,9.32
2023-02-08T16:00:49.822Z,8.95
2023-02-08T16:02:54.098Z,10.27
2023-02-08T16:04:56.775Z,10.23
2023-02-08T16:06:58.441Z,12.30
2023-02-08T16:09:02.349Z,11.30
2023-02-08T16:11:09.485Z,12.75
2023-02-08T16:13:20.166Z,12.00
2023-02-08T16:15:36.040Z,9.93
2023-02-08T16:17:44.629Z,9.20
2023-02-08T16:19:51.161Z,10.27
2023-02-08T16:21:53.880Z,9.18
2023-02-08T16:23:58.348Z,10.27
2023-02-08T16:26:13.193Z,10.75
2023-02-08T16:28:26.551Z,10.02
2023-02-08T16:30:28.380Z,12.90
2023-02-08T16:32:33.247Z,11.63
2023-02-08T16:34:36.734Z,11.43
2023-02-08T16:36:41.355Z,11.27
2023-02-08T16:39:05.040Z,9.98
2023-02-08T16:41:11.126Z,11.07
2023-02-08T16:43:17.735Z,11.77
2023-02-08T16:45:21.323Z,12.38
2023-02-08T16:47:27.630Z,14.25
2023-02-08T16:49:29.150Z,13.32
2023-02-08T16:51:32.974Z,10.68
2023-02-08T16:53:42.012Z,10.75
2023-02-08T16:55:44.115Z,11.95
2023-02-08T16:57:47.444Z,11.68
2023-02-08T16:59:49.092Z,12.80
2023-02-08T17:01:58.251Z,13.00
2023-02-08T17:04:02.771Z,11.52
2023-02-08T17:06:04.939Z,12.77
2023-02-08T17:08:08.720Z,12.77
2023-02-08T17:10:23.716Z,14.13
2023-02-08T17:12:25.293Z,15.07
2023-02-08T17:14:26.867Z,14.80
2023-02-08T17:16:30.265Z,13.45
2023-02-08T17:18:34.907Z,14.35
2023-02-08T17:20:47.089Z,13.50
2023-02-08T17:22:49.021Z,12.13
2023-02-08T17:24:50.713Z,12.57
2023-02-08T17:26:52.341Z,11.90
2023-02-08T17:28:54.367Z,12.38
2023-02-08T17:30:56.022Z,12.60
2023-02-08T17:32:57.654Z,15.50
2023-02-08T17:35:00.585Z,18.17
2023-02-08T17:37:02.212Z,15.30
2023-02-08T17:39:05.148Z,16.95
2023-02-08T17:41:08.310Z,20.83
2023-02-08T17:43:11.571Z,21.00
2023-02-08T17:45:13.041Z,14.88
2023-02-08T17:47:14.553Z,15.60
2023-02-08T17:49:16.082Z,14.90
2023-02-08T17:51:20.517Z,13.63
2023-02-08T17:53:22.140Z,13.35
2023-02-08T17:55:23.681Z,15.75
2023-02-08T17:57:25.338Z,19.15
2023-02-08T17:59:28.952Z,16.48
2023-02-08T18:01:31.574Z,15.75
2023-02-08T18:03:33.302Z,14.13
2023-02-08T18:05:35.170Z,13.60
2023-02-08T18:07:38.088Z,14.85
2023-02-08T18:09:39.619Z,14.27
2023-02-08T18:11:41.259Z,16.60
2023-02-08T18:13:43.420Z,15.90
2023-02-08T18:15:46.327Z,16.92
2023-02-08T18:17:48.904Z,17.27
2023-02-08T18:19:50.437Z,17.13
2023-02-08T18:21:51.979Z,20.38
2023-02-08T18:23:55.015Z,22.08
2023-02-08T18:26:04.824Z,21.67
2023-02-08T18:28:06.363Z,23.10
2023-02-08T18:30:09.765Z,22.90
2023-02-08T18:32:11.335Z,24.70
2023-02-08T18:34:12.914Z,26.23
2023-02-08T18:36:14.806Z,29.45
2023-02-08T18:38:16.328Z,29.30
2023-02-08T18:40:19.330Z,31.20
2023-02-08T18:42:20.830Z,27.70
2023-02-08T18:44:22.426Z,35.15
2023-02-08T18:46:26.531Z,29.85
2023-02-08T18:48:28.504Z,29.10
2023-02-08T18:50:30.354Z,31.10
2023-02-08T18:52:32.509Z,33.83
2023-02-08T18:54:34.102Z,32.65
2023-02-08T18:56:37.023Z,35.00
2023-02-08T18:58:41.440Z,36.10
2023-02-08T19:00:42.971Z,34.33
2023-02-08T19:02:44.563Z,29.65
2023-02-08T19:04:46.630Z,28.38
2023-02-08T19:06:48.213Z,33.10
2023-02-08T19:08:50.700Z,31.42
2023-02-08T19:10:52.164Z,23.23
2023-02-08T19:12:55.016Z,21.40
2023-02-08T19:14:56.629Z,21.50
2023-02-08T19:16:58.573Z,21.48
2023-02-08T19:19:00.093Z,26.63
2023-02-08T19:21:04.058Z,27.77
2023-02-08T19:23:06.060Z,21.95
2023-02-08T19:25:08.128Z,22.65
2023-02-08T19:27:09.707Z,21.92
2023-02-08T19:29:14.599Z,18.10
2023-02-08T19:31:18.680Z,17.33
2023-02-08T19:33:20.252Z,17.60
2023-02-08T19:35:21.769Z,17.42
2023-02-08T19:37:23.278Z,18.23
2023-02-08T19:39:26.869Z,21.88
2023-02-08T19:41:30.550Z,20.23
2023-02-08T19:43:32.708Z,22.23
2023-02-08T19:45:36.148Z,24.35
2023-02-08T19:47:50.741Z,26.70
2023-02-08T19:49:53.152Z,26.30
2023-02-08T19:51:55.449Z,35.25
2023-02-08T19:53:57.454Z,21.30
2023-02-08T19:56:01.237Z,19.30
2023-02-08T19:58:02.804Z,17.45
2023-02-08T20:00:11.296Z,22.95
2023-02-08T20:02:20.731Z,22.02
2023-02-08T20:04:22.998Z,20.50
2023-02-08T20:06:27.084Z,13.40
2023-02-08T20:08:28.972Z,13.63
2023-02-08T20:10:33.176Z,13.77
2023-02-08T20:12:34.696Z,15.30
2023-02-08T20:14:36.266Z,14.70
2023-02-08T20:16:37.860Z,15.88
2023-02-08T20:18:41.219Z,14.90
2023-02-08T20:20:43.246Z,16.42
2023-02-08T20:22:44.774Z,17.65
2023-02-08T20:24:46.414Z,20.85
2023-02-08T20:26:48.718Z,14.50
2023-02-08T20:28:52.070Z,16.35
2023-02-08T20:30:53.578Z,16.05
2023-02-08T20:32:55.181Z,13.73
2023-02-08T20:34:59.750Z,13.20
2023-02-08T20:37:07.826Z,14.10
2023-02-08T20:39:13.599Z,14.90
2023-02-08T20:41:16.578Z,13.73
2023-02-08T20:43:18.268Z,13.55
2023-02-08T20:45:19.812Z,12.40
2023-02-08T20:47:21.370Z,11.88
2023-02-08T20:49:22.939Z,12.45
2023-02-08T20:51:26.773Z,12.35
2023-02-08T20:53:28.253Z,11.02
2023-02-08T20:55:29.757Z,12.00
2023-02-08T20:57:31.230Z,12.50
2023-02-08T20:59:32.788Z,11.70
2023-02-08T21:01:36.112Z,12.52
2023-02-08T21:03:37.806Z,12.80
2023-02-08T21:05:39.338Z,12.05
2023-02-08T21:07:42.171Z,11.43
2023-02-08T21:09:43.886Z,14.50
2023-02-08T21:11:46.069Z,13.45
2023-02-08T21:13:48.302Z,14.88
2023-02-08T21:15:49.909Z,13.90
2023-02-08T21:17:51.486Z,14.07
2023-02-08T21:19:55.048Z,13.35
2023-02-08T21:22:00.919Z,13.75
2023-02-08T21:24:04.247Z,13.93
2023-02-08T21:26:08.139Z,12.93
2023-02-08T21:28:10.030Z,11.88
2023-02-08T21:30:12.103Z,12.57
2023-02-08T21:32:13.852Z,12.65
2023-02-08T21:34:15.491Z,13.23
2023-02-08T21:36:18.953Z,14.77
2023-02-08T21:38:20.704Z,14.18
2023-02-08T21:40:23.668Z,16.42
2023-02-08T21:42:25.262Z,14.75
2023-02-08T21:44:26.880Z,13.35
2023-02-08T21:46:28.567Z,13.10
2023-02-08T21:48:30.120Z,13.18
2023-02-08T21:50:31.746Z,15.00
2023-02-08T21:52:33.339Z,13.93
2023-02-08T21:54:35.814Z,15.15
2023-02-08T21:56:38.807Z,14.60
2023-02-08T21:58:40.428Z,13.43
2023-02-08T22:00:42.188Z,14.68
2023-02-08T22:02:44.005Z,13.65
2023-02-08T22:04:45.542Z,15.00
2023-02-08T22:06:47.147Z,14.35
2023-02-08T22:08:48.691Z,12.23
2023-02-08T22:10:58.366Z,14.93
2023-02-08T22:13:01.636Z,13.13
2023-02-08T22:15:03.585Z,14.85
2023-02-08T22:17:05.144Z,17.17
2023-02-08T22:19:07.527Z,16.40
2023-02-08T22:21:09.018Z,14.07
2023-02-08T22:23:10.551Z,15.95
2023-02-08T22:25:12.468Z,14.25
2023-02-08T22:27:16.134Z,16.17
2023-02-08T22:29:19.040Z,14.80
2023-02-08T22:31:20.801Z,14.10
2023-02-08T22:33:22.452Z,13.93
2023-02-08T22:35:24.039Z,13.75
2023-02-08T22:37:25.769Z,13.73
2023-02-08T22:39:27.289Z,13.00
2023-02-08T22:41:28.846Z,12.73
2023-02-08T22:43:30.432Z,13.25
2023-02-08T22:45:33.345Z,14.13
2023-02-08T22:47:35.656Z,12.68
2023-02-08T22:49:37.519Z,13.02
2023-02-08T22:51:39.083Z,14.45
2023-02-08T22:53:40.813Z,12.80
2023-02-08T22:55:48.432Z,13.27
2023-02-08T22:57:50.069Z,12.07
2023-02-08T22:59:51.611Z,12.52
2023-02-08T23:01:54.550Z,11.95
2023-02-08T23:03:56.227Z,14.55
2023-02-08T23:05:57.749Z,20.30
2023-02-08T23:07:59.260Z,22.70
2023-02-08T23:10:00.789Z,21.42
2023-02-08T23:12:05.417Z,18.42
2023-02-08T23:14:06.950Z,17.35
2023-02-08T23:16:12.148Z,15.93
2023-02-08T23:18:15.090Z,14.43
2023-02-08T23:20:16.974Z,14.52
2023-02-08T23:22:18.553Z,15.68
2023-02-08T23:24:20.148Z,12.57
2023-02-08T23:26:22.140Z,12.85
2023-02-08T23:28:23.705Z,13.27
2023-02-08T23:30:25.271Z,12.90
2023-02-08T23:32:26.835Z,13.70
2023-02-08T23:34:30.041Z,13.15
2023-02-08T23:36:31.574Z,12.10
2023-02-08T23:38:33.336Z,13.65
2023-02-08T23:40:35.111Z,13.60
2023-02-08T23:42:36.923Z,12.27
2023-02-08T23:44:38.627Z,12.73
2023-02-08T23:46:40.211Z,14.73
2023-02-08T23:48:50.698Z,14.30
2023-02-08T23:51:01.257Z,12.63
2023-02-08T23:53:02.817Z,13.32
2023-02-08T23:55:05.923Z,12.15
2023-02-08T23:57:07.489Z,13.50
2023-02-08T23:59:10.523Z,14.10
